sensor_id;sensor_type;location;lat;lon;timestamp;P1;durP1;ratioP1;P2;durP2;ratioP2
68234;SDS011;55052;52.056;5.296;2023-07-28T00:01:56;13.38;;;8.90;;
68234;SDS011;55052;52.056;5.296;2023-07-28T00:04:23;16.40;;;7.93;;
68234;SDS011;55052;52.056;5.296;2023-07-28T00:06:50;16.42;;;8.15;;
68234;SDS011;55052;52.056;5.296;2023-07-28T00:09:17;13.07;;;8.27;;
68234;SDS011;55052;52.056;5.296;2023-07-28T00:11:44;15.05;;;8.05;;
68234;SDS011;55052;52.056;5.296;2023-07-28T00:14:11;14.45;;;7.38;;
68234;SDS011;55052;52.056;5.296;2023-07-28T00:16:37;13.88;;;7.70;;
68234;SDS011;55052;52.056;5.296;2023-07-28T00:19:04;13.35;;;7.35;;
68234;SDS011;55052;52.056;5.296;2023-07-28T00:21:31;11.70;;;7.13;;
68234;SDS011;55052;52.056;5.296;2023-07-28T00:23:58;13.25;;;7.22;;
68234;SDS011;55052;52.056;5.296;2023-07-28T00:26:24;11.45;;;6.95;;
68234;SDS011;55052;52.056;5.296;2023-07-28T00:28:51;12.85;;;7.93;;
68234;SDS011;55052;52.056;5.296;2023-07-28T00:31:18;14.00;;;7.70;;
68234;SDS011;55052;52.056;5.296;2023-07-28T00:33:45;13.13;;;7.80;;
68234;SDS011;55052;52.056;5.296;2023-07-28T00:36:11;14.23;;;7.90;;
68234;SDS011;55052;52.056;5.296;2023-07-28T00:38:38;14.43;;;7.90;;
68234;SDS011;55052;52.056;5.296;2023-07-28T00:41:05;17.95;;;8.27;;
68234;SDS011;55052;52.056;5.296;2023-07-28T00:43:33;15.65;;;7.65;;
68234;SDS011;55052;52.056;5.296;2023-07-28T00:46:00;14.93;;;8.18;;
68234;SDS011;55052;52.056;5.296;2023-07-28T00:48:27;11.63;;;7.15;;
68234;SDS011;55052;52.056;5.296;2023-07-28T00:50:54;15.73;;;7.50;;
68234;SDS011;55052;52.056;5.296;2023-07-28T00:53:21;11.93;;;6.60;;
68234;SDS011;55052;52.056;5.296;2023-07-28T00:55:49;15.25;;;6.88;;
68234;SDS011;55052;52.056;5.296;2023-07-28T00:58:17;13.57;;;6.80;;
68234;SDS011;55052;52.056;5.296;2023-07-28T01:00:44;13.65;;;6.25;;
68234;SDS011;55052;52.056;5.296;2023-07-28T01:03:11;12.10;;;6.55;;
68234;SDS011;55052;52.056;5.296;2023-07-28T01:05:56;16.05;;;6.22;;
68234;SDS011;55052;52.056;5.296;2023-07-28T01:08:30;12.88;;;6.50;;
68234;SDS011;55052;52.056;5.296;2023-07-28T01:11:02;15.45;;;6.55;;
68234;SDS011;55052;52.056;5.296;2023-07-28T01:13:29;11.90;;;5.93;;
68234;SDS011;55052;52.056;5.296;2023-07-28T01:15:56;15.75;;;6.28;;
68234;SDS011;55052;52.056;5.296;2023-07-28T01:18:24;12.55;;;6.50;;
68234;SDS011;55052;52.056;5.296;2023-07-28T01:20:51;11.70;;;6.38;;
68234;SDS011;55052;52.056;5.296;2023-07-28T01:23:31;13.10;;;6.15;;
68234;SDS011;55052;52.056;5.296;2023-07-28T01:28:55;17.33;;;7.72;;
68234;SDS011;55052;52.056;5.296;2023-07-28T01:31:23;19.20;;;7.35;;
68234;SDS011;55052;52.056;5.296;2023-07-28T01:33:50;16.58;;;7.97;;
68234;SDS011;55052;52.056;5.296;2023-07-28T01:36:17;17.35;;;7.95;;
68234;SDS011;55052;52.056;5.296;2023-07-28T01:38:43;19.10;;;8.00;;
68234;SDS011;55052;52.056;5.296;2023-07-28T01:41:10;13.80;;;7.95;;
68234;SDS011;55052;52.056;5.296;2023-07-28T01:43:37;14.38;;;7.55;;
68234;SDS011;55052;52.056;5.296;2023-07-28T01:46:04;20.98;;;9.15;;
68234;SDS011;55052;52.056;5.296;2023-07-28T01:48:31;20.38;;;9.45;;
68234;SDS011;55052;52.056;5.296;2023-07-28T01:50:58;23.13;;;10.20;;
68234;SDS011;55052;52.056;5.296;2023-07-28T01:53:24;20.20;;;9.80;;
68234;SDS011;55052;52.056;5.296;2023-07-28T01:55:51;21.75;;;10.50;;
68234;SDS011;55052;52.056;5.296;2023-07-28T01:58:18;21.35;;;10.77;;
68234;SDS011;55052;52.056;5.296;2023-07-28T02:00:45;23.73;;;9.70;;
68234;SDS011;55052;52.056;5.296;2023-07-28T02:03:15;21.67;;;9.85;;
68234;SDS011;55052;52.056;5.296;2023-07-28T02:05:41;25.48;;;11.00;;
68234;SDS011;55052;52.056;5.296;2023-07-28T02:08:08;26.80;;;11.00;;
68234;SDS011;55052;52.056;5.296;2023-07-28T02:10:35;22.40;;;10.25;;
68234;SDS011;55052;52.056;5.296;2023-07-28T02:13:02;24.33;;;10.25;;
68234;SDS011;55052;52.056;5.296;2023-07-28T02:15:28;22.05;;;10.75;;
68234;SDS011;55052;52.056;5.296;2023-07-28T02:17:55;23.52;;;10.95;;
68234;SDS011;55052;52.056;5.296;2023-07-28T02:20:22;24.05;;;10.85;;
68234;SDS011;55052;52.056;5.296;2023-07-28T02:22:49;26.13;;;10.95;;
68234;SDS011;55052;52.056;5.296;2023-07-28T02:25:15;29.25;;;11.50;;
68234;SDS011;55052;52.056;5.296;2023-07-28T02:27:42;26.15;;;10.20;;
68234;SDS011;55052;52.056;5.296;2023-07-28T02:30:09;22.98;;;10.25;;
68234;SDS011;55052;52.056;5.296;2023-07-28T02:32:36;23.35;;;10.20;;
68234;SDS011;55052;52.056;5.296;2023-07-28T02:35:03;24.10;;;11.18;;
68234;SDS011;55052;52.056;5.296;2023-07-28T02:37:31;29.70;;;11.63;;
68234;SDS011;55052;52.056;5.296;2023-07-28T02:39:57;28.52;;;11.05;;
68234;SDS011;55052;52.056;5.296;2023-07-28T02:42:24;23.10;;;11.13;;
68234;SDS011;55052;52.056;5.296;2023-07-28T02:44:52;30.52;;;11.38;;
68234;SDS011;55052;52.056;5.296;2023-07-28T02:47:19;28.95;;;12.13;;
68234;SDS011;55052;52.056;5.296;2023-07-28T02:49:45;29.33;;;11.38;;
68234;SDS011;55052;52.056;5.296;2023-07-28T02:52:12;28.27;;;11.70;;
68234;SDS011;55052;52.056;5.296;2023-07-28T02:54:39;30.48;;;11.55;;
68234;SDS011;55052;52.056;5.296;2023-07-28T02:57:06;25.38;;;12.10;;
68234;SDS011;55052;52.056;5.296;2023-07-28T02:59:33;36.80;;;11.90;;
68234;SDS011;55052;52.056;5.296;2023-07-28T03:02:00;25.90;;;11.77;;
68234;SDS011;55052;52.056;5.296;2023-07-28T03:04:27;31.58;;;12.45;;
68234;SDS011;55052;52.056;5.296;2023-07-28T03:06:53;32.05;;;12.70;;
68234;SDS011;55052;52.056;5.296;2023-07-28T03:09:20;31.92;;;13.70;;
68234;SDS011;55052;52.056;5.296;2023-07-28T03:11:47;30.65;;;13.52;;
68234;SDS011;55052;52.056;5.296;2023-07-28T03:14:14;36.45;;;13.43;;
68234;SDS011;55052;52.056;5.296;2023-07-28T03:16:41;36.92;;;14.15;;
68234;SDS011;55052;52.056;5.296;2023-07-28T03:19:08;37.50;;;13.20;;
68234;SDS011;55052;52.056;5.296;2023-07-28T03:21:35;40.33;;;13.60;;
68234;SDS011;55052;52.056;5.296;2023-07-28T03:24:05;44.38;;;14.85;;
68234;SDS011;55052;52.056;5.296;2023-07-28T03:26:32;41.60;;;15.07;;
68234;SDS011;55052;52.056;5.296;2023-07-28T03:28:59;38.72;;;14.25;;
68234;SDS011;55052;52.056;5.296;2023-07-28T03:31:26;44.28;;;14.80;;
68234;SDS011;55052;52.056;5.296;2023-07-28T03:33:53;39.67;;;14.68;;
68234;SDS011;55052;52.056;5.296;2023-07-28T03:36:20;35.53;;;15.20;;
68234;SDS011;55052;52.056;5.296;2023-07-28T03:38:47;37.03;;;14.65;;
68234;SDS011;55052;52.056;5.296;2023-07-28T03:41:13;36.97;;;14.32;;
68234;SDS011;55052;52.056;5.296;2023-07-28T03:43:40;37.70;;;14.75;;
68234;SDS011;55052;52.056;5.296;2023-07-28T03:46:07;38.58;;;14.70;;
68234;SDS011;55052;52.056;5.296;2023-07-28T03:48:35;37.47;;;14.88;;
68234;SDS011;55052;52.056;5.296;2023-07-28T03:51:01;36.53;;;13.80;;
68234;SDS011;55052;52.056;5.296;2023-07-28T03:53:28;40.70;;;14.88;;
68234;SDS011;55052;52.056;5.296;2023-07-28T03:55:55;38.83;;;14.95;;
68234;SDS011;55052;52.056;5.296;2023-07-28T03:58:27;39.63;;;15.52;;
68234;SDS011;55052;52.056;5.296;2023-07-28T04:00:53;36.75;;;14.68;;
68234;SDS011;55052;52.056;5.296;2023-07-28T04:03:21;33.65;;;15.07;;
68234;SDS011;55052;52.056;5.296;2023-07-28T04:05:48;37.85;;;15.18;;
68234;SDS011;55052;52.056;5.296;2023-07-28T04:08:15;34.22;;;14.70;;
68234;SDS011;55052;52.056;5.296;2023-07-28T04:10:41;47.30;;;15.18;;
68234;SDS011;55052;52.056;5.296;2023-07-28T04:13:08;34.00;;;14.52;;
68234;SDS011;55052;52.056;5.296;2023-07-28T04:15:35;39.47;;;15.15;;
68234;SDS011;55052;52.056;5.296;2023-07-28T04:18:02;36.90;;;14.73;;
68234;SDS011;55052;52.056;5.296;2023-07-28T04:20:29;35.67;;;15.73;;
68234;SDS011;55052;52.056;5.296;2023-07-28T04:22:56;42.97;;;15.07;;
68234;SDS011;55052;52.056;5.296;2023-07-28T04:25:23;34.90;;;13.77;;
68234;SDS011;55052;52.056;5.296;2023-07-28T04:27:50;47.47;;;14.50;;
68234;SDS011;55052;52.056;5.296;2023-07-28T04:30:16;37.20;;;13.90;;
68234;SDS011;55052;52.056;5.296;2023-07-28T04:32:43;33.55;;;14.60;;
68234;SDS011;55052;52.056;5.296;2023-07-28T04:35:10;35.28;;;14.57;;
68234;SDS011;55052;52.056;5.296;2023-07-28T04:37:37;38.95;;;14.63;;
68234;SDS011;55052;52.056;5.296;2023-07-28T04:40:04;35.67;;;13.80;;
68234;SDS011;55052;52.056;5.296;2023-07-28T04:42:31;28.98;;;13.15;;
68234;SDS011;55052;52.056;5.296;2023-07-28T04:44:58;34.83;;;13.68;;
68234;SDS011;55052;52.056;5.296;2023-07-28T04:47:24;37.80;;;14.32;;
68234;SDS011;55052;52.056;5.296;2023-07-28T04:49:51;40.00;;;14.60;;
68234;SDS011;55052;52.056;5.296;2023-07-28T04:52:18;40.80;;;15.15;;
68234;SDS011;55052;52.056;5.296;2023-07-28T04:54:45;32.60;;;14.18;;
68234;SDS011;55052;52.056;5.296;2023-07-28T04:57:12;35.90;;;13.60;;
68234;SDS011;55052;52.056;5.296;2023-07-28T04:59:41;42.25;;;14.75;;
68234;SDS011;55052;52.056;5.296;2023-07-28T05:02:09;35.22;;;14.15;;
68234;SDS011;55052;52.056;5.296;2023-07-28T05:04:36;33.90;;;14.90;;
68234;SDS011;55052;52.056;5.296;2023-07-28T05:07:03;40.97;;;15.52;;
68234;SDS011;55052;52.056;5.296;2023-07-28T05:09:30;38.03;;;14.75;;
68234;SDS011;55052;52.056;5.296;2023-07-28T05:11:57;38.78;;;15.05;;
68234;SDS011;55052;52.056;5.296;2023-07-28T05:14:24;36.33;;;15.18;;
68234;SDS011;55052;52.056;5.296;2023-07-28T05:16:51;43.67;;;15.63;;
68234;SDS011;55052;52.056;5.296;2023-07-28T05:19:18;36.85;;;14.18;;
68234;SDS011;55052;52.056;5.296;2023-07-28T05:21:45;38.30;;;15.02;;
68234;SDS011;55052;52.056;5.296;2023-07-28T05:24:11;37.50;;;14.95;;
68234;SDS011;55052;52.056;5.296;2023-07-28T05:26:38;31.08;;;14.52;;
68234;SDS011;55052;52.056;5.296;2023-07-28T05:29:05;41.65;;;15.07;;
68234;SDS011;55052;52.056;5.296;2023-07-28T05:31:32;34.63;;;14.57;;
68234;SDS011;55052;52.056;5.296;2023-07-28T05:33:59;35.75;;;15.23;;
68234;SDS011;55052;52.056;5.296;2023-07-28T05:36:26;35.20;;;14.65;;
68234;SDS011;55052;52.056;5.296;2023-07-28T05:38:53;33.25;;;14.50;;
68234;SDS011;55052;52.056;5.296;2023-07-28T05:41:22;30.33;;;14.68;;
68234;SDS011;55052;52.056;5.296;2023-07-28T05:43:50;31.63;;;15.35;;
68234;SDS011;55052;52.056;5.296;2023-07-28T05:46:17;33.53;;;15.40;;
68234;SDS011;55052;52.056;5.296;2023-07-28T05:48:45;40.92;;;15.18;;
68234;SDS011;55052;52.056;5.296;2023-07-28T05:51:12;31.13;;;15.48;;
68234;SDS011;55052;52.056;5.296;2023-07-28T05:53:38;35.38;;;15.45;;
68234;SDS011;55052;52.056;5.296;2023-07-28T05:56:05;38.50;;;14.55;;
68234;SDS011;55052;52.056;5.296;2023-07-28T05:58:32;34.92;;;15.45;;
68234;SDS011;55052;52.056;5.296;2023-07-28T06:00:59;35.78;;;16.20;;
68234;SDS011;55052;52.056;5.296;2023-07-28T06:03:26;37.90;;;14.95;;
68234;SDS011;55052;52.056;5.296;2023-07-28T06:05:55;33.38;;;14.98;;
68234;SDS011;55052;52.056;5.296;2023-07-28T06:08:22;36.03;;;14.70;;
68234;SDS011;55052;52.056;5.296;2023-07-28T06:10:49;35.58;;;15.70;;
68234;SDS011;55052;52.056;5.296;2023-07-28T06:13:16;30.08;;;14.82;;
68234;SDS011;55052;52.056;5.296;2023-07-28T06:15:43;27.33;;;15.23;;
68234;SDS011;55052;52.056;5.296;2023-07-28T06:18:09;31.95;;;15.25;;
68234;SDS011;55052;52.056;5.296;2023-07-28T06:20:36;26.05;;;15.13;;
68234;SDS011;55052;52.056;5.296;2023-07-28T06:23:03;33.85;;;15.45;;
68234;SDS011;55052;52.056;5.296;2023-07-28T06:25:30;29.02;;;15.02;;
68234;SDS011;55052;52.056;5.296;2023-07-28T06:27:56;30.05;;;15.02;;
68234;SDS011;55052;52.056;5.296;2023-07-28T06:30:23;37.20;;;15.50;;
68234;SDS011;55052;52.056;5.296;2023-07-28T06:32:50;39.65;;;16.20;;
68234;SDS011;55052;52.056;5.296;2023-07-28T06:35:17;31.90;;;15.40;;
68234;SDS011;55052;52.056;5.296;2023-07-28T06:37:44;29.85;;;14.93;;
68234;SDS011;55052;52.056;5.296;2023-07-28T06:40:11;32.80;;;15.10;;
68234;SDS011;55052;52.056;5.296;2023-07-28T06:42:38;32.95;;;15.30;;
68234;SDS011;55052;52.056;5.296;2023-07-28T06:45:05;28.63;;;14.85;;
68234;SDS011;55052;52.056;5.296;2023-07-28T06:47:32;33.05;;;14.55;;
68234;SDS011;55052;52.056;5.296;2023-07-28T06:49:59;29.00;;;14.80;;
68234;SDS011;55052;52.056;5.296;2023-07-28T06:52:25;35.95;;;15.27;;
68234;SDS011;55052;52.056;5.296;2023-07-28T06:54:52;28.33;;;14.35;;
68234;SDS011;55052;52.056;5.296;2023-07-28T06:57:20;33.55;;;14.73;;
68234;SDS011;55052;52.056;5.296;2023-07-28T06:59:48;29.70;;;13.88;;
68234;SDS011;55052;52.056;5.296;2023-07-28T07:02:16;25.25;;;13.02;;
68234;SDS011;55052;52.056;5.296;2023-07-28T07:04:43;30.30;;;14.48;;
68234;SDS011;55052;52.056;5.296;2023-07-28T07:07:10;25.33;;;12.63;;
68234;SDS011;55052;52.056;5.296;2023-07-28T07:09:36;24.85;;;13.45;;
68234;SDS011;55052;52.056;5.296;2023-07-28T07:12:03;27.50;;;13.30;;
68234;SDS011;55052;52.056;5.296;2023-07-28T07:14:30;27.13;;;11.93;;
68234;SDS011;55052;52.056;5.296;2023-07-28T07:16:57;22.65;;;11.55;;
68234;SDS011;55052;52.056;5.296;2023-07-28T07:19:24;23.67;;;11.80;;
68234;SDS011;55052;52.056;5.296;2023-07-28T07:21:51;27.38;;;11.00;;
68234;SDS011;55052;52.056;5.296;2023-07-28T07:24:18;21.10;;;10.40;;
68234;SDS011;55052;52.056;5.296;2023-07-28T07:26:44;23.90;;;10.60;;
68234;SDS011;55052;52.056;5.296;2023-07-28T07:29:11;18.88;;;10.50;;
68234;SDS011;55052;52.056;5.296;2023-07-28T07:31:38;23.05;;;10.80;;
68234;SDS011;55052;52.056;5.296;2023-07-28T07:34:06;26.15;;;11.32;;
68234;SDS011;55052;52.056;5.296;2023-07-28T07:36:32;23.52;;;11.00;;
68234;SDS011;55052;52.056;5.296;2023-07-28T07:38:59;22.00;;;10.57;;
68234;SDS011;55052;52.056;5.296;2023-07-28T07:41:26;22.70;;;9.75;;
68234;SDS011;55052;52.056;5.296;2023-07-28T07:43:53;19.15;;;8.90;;
68234;SDS011;55052;52.056;5.296;2023-07-28T07:46:21;18.80;;;9.43;;
68234;SDS011;55052;52.056;5.296;2023-07-28T07:48:48;16.08;;;8.27;;
68234;SDS011;55052;52.056;5.296;2023-07-28T07:51:16;15.13;;;7.38;;
68234;SDS011;55052;52.056;5.296;2023-07-28T07:53:43;20.17;;;7.47;;
68234;SDS011;55052;52.056;5.296;2023-07-28T07:56:10;16.17;;;7.32;;
68234;SDS011;55052;52.056;5.296;2023-07-28T07:58:37;19.02;;;7.95;;
68234;SDS011;55052;52.056;5.296;2023-07-28T08:01:04;15.25;;;7.20;;
68234;SDS011;55052;52.056;5.296;2023-07-28T08:03:31;18.23;;;7.57;;
68234;SDS011;55052;52.056;5.296;2023-07-28T08:05:58;18.17;;;8.52;;
68234;SDS011;55052;52.056;5.296;2023-07-28T08:08:25;17.52;;;7.40;;
68234;SDS011;55052;52.056;5.296;2023-07-28T08:10:53;22.00;;;7.38;;
68234;SDS011;55052;52.056;5.296;2023-07-28T08:13:20;22.90;;;8.07;;
68234;SDS011;55052;52.056;5.296;2023-07-28T08:15:48;13.15;;;6.70;;
68234;SDS011;55052;52.056;5.296;2023-07-28T08:18:15;20.52;;;7.00;;
68234;SDS011;55052;52.056;5.296;2023-07-28T08:20:42;18.45;;;7.20;;
68234;SDS011;55052;52.056;5.296;2023-07-28T08:23:08;13.82;;;7.18;;
68234;SDS011;55052;52.056;5.296;2023-07-28T08:25:36;16.77;;;6.60;;
68234;SDS011;55052;52.056;5.296;2023-07-28T08:28:03;19.63;;;6.20;;
68234;SDS011;55052;52.056;5.296;2023-07-28T08:30:30;13.98;;;6.13;;
68234;SDS011;55052;52.056;5.296;2023-07-28T08:32:58;17.45;;;6.78;;
68234;SDS011;55052;52.056;5.296;2023-07-28T08:35:25;15.00;;;6.53;;
68234;SDS011;55052;52.056;5.296;2023-07-28T08:37:52;15.95;;;6.10;;
68234;SDS011;55052;52.056;5.296;2023-07-28T08:40:19;13.73;;;6.07;;
68234;SDS011;55052;52.056;5.296;2023-07-28T08:42:46;11.07;;;4.70;;
68234;SDS011;55052;52.056;5.296;2023-07-28T08:45:14;9.90;;;4.97;;
68234;SDS011;55052;52.056;5.296;2023-07-28T08:47:40;12.82;;;5.13;;
68234;SDS011;55052;52.056;5.296;2023-07-28T08:50:08;12.15;;;4.50;;
68234;SDS011;55052;52.056;5.296;2023-07-28T08:52:35;13.23;;;4.85;;
68234;SDS011;55052;52.056;5.296;2023-07-28T08:55:02;9.55;;;4.68;;
68234;SDS011;55052;52.056;5.296;2023-07-28T08:57:29;10.88;;;4.88;;
68234;SDS011;55052;52.056;5.296;2023-07-28T08:59:56;12.82;;;5.07;;
68234;SDS011;55052;52.056;5.296;2023-07-28T09:02:23;11.30;;;4.72;;
68234;SDS011;55052;52.056;5.296;2023-07-28T09:04:49;10.38;;;5.05;;
68234;SDS011;55052;52.056;5.296;2023-07-28T09:07:16;14.18;;;4.97;;
68234;SDS011;55052;52.056;5.296;2023-07-28T09:09:43;11.10;;;4.60;;
68234;SDS011;55052;52.056;5.296;2023-07-28T09:12:10;13.77;;;5.65;;
68234;SDS011;55052;52.056;5.296;2023-07-28T09:14:37;13.38;;;6.15;;
68234;SDS011;55052;52.056;5.296;2023-07-28T09:17:08;12.38;;;5.25;;
68234;SDS011;55052;52.056;5.296;2023-07-28T09:19:55;13.65;;;5.60;;
68234;SDS011;55052;52.056;5.296;2023-07-28T09:22:22;10.23;;;5.65;;
68234;SDS011;55052;52.056;5.296;2023-07-28T09:24:50;11.68;;;5.57;;
68234;SDS011;55052;52.056;5.296;2023-07-28T09:27:24;13.55;;;6.03;;
68234;SDS011;55052;52.056;5.296;2023-07-28T09:29:52;11.93;;;5.45;;
68234;SDS011;55052;52.056;5.296;2023-07-28T09:32:28;9.82;;;4.82;;
68234;SDS011;55052;52.056;5.296;2023-07-28T09:35:09;10.70;;;4.43;;
68234;SDS011;55052;52.056;5.296;2023-07-28T09:37:42;10.40;;;4.65;;
68234;SDS011;55052;52.056;5.296;2023-07-28T09:40:14;8.75;;;4.38;;
68234;SDS011;55052;52.056;5.296;2023-07-28T09:42:44;11.05;;;4.53;;
68234;SDS011;55052;52.056;5.296;2023-07-28T09:45:20;9.00;;;4.03;;
68234;SDS011;55052;52.056;5.296;2023-07-28T09:48:04;11.35;;;4.30;;
68234;SDS011;55052;52.056;5.296;2023-07-28T09:50:35;9.93;;;3.92;;
68234;SDS011;55052;52.056;5.296;2023-07-28T09:53:04;10.32;;;4.05;;
68234;SDS011;55052;52.056;5.296;2023-07-28T09:55:35;11.82;;;4.18;;
68234;SDS011;55052;52.056;5.296;2023-07-28T09:58:06;10.95;;;4.45;;
68234;SDS011;55052;52.056;5.296;2023-07-28T10:03:03;9.60;;;4.30;;
68234;SDS011;55052;52.056;5.296;2023-07-28T10:05:30;9.38;;;4.50;;
68234;SDS011;55052;52.056;5.296;2023-07-28T10:07:59;9.90;;;4.15;;
68234;SDS011;55052;52.056;5.296;2023-07-28T10:10:26;10.85;;;4.97;;
68234;SDS011;55052;52.056;5.296;2023-07-28T10:12:54;10.43;;;5.00;;
68234;SDS011;55052;52.056;5.296;2023-07-28T10:15:27;11.68;;;5.15;;
68234;SDS011;55052;52.056;5.296;2023-07-28T10:17:58;9.00;;;4.60;;
68234;SDS011;55052;52.056;5.296;2023-07-28T10:20:27;8.30;;;4.35;;
68234;SDS011;55052;52.056;5.296;2023-07-28T10:23:11;10.13;;;3.83;;
68234;SDS011;55052;52.056;5.296;2023-07-28T10:25:43;11.02;;;4.47;;
68234;SDS011;55052;52.056;5.296;2023-07-28T10:28:27;13.60;;;6.13;;
68234;SDS011;55052;52.056;5.296;2023-07-28T10:31:01;11.17;;;5.07;;
68234;SDS011;55052;52.056;5.296;2023-07-28T10:33:38;14.35;;;6.78;;
68234;SDS011;55052;52.056;5.296;2023-07-28T10:36:11;16.13;;;7.65;;
68234;SDS011;55052;52.056;5.296;2023-07-28T10:38:40;12.10;;;6.90;;
68234;SDS011;55052;52.056;5.296;2023-07-28T10:41:14;14.57;;;8.50;;
68234;SDS011;55052;52.056;5.296;2023-07-28T10:43:45;15.40;;;8.38;;
68234;SDS011;55052;52.056;5.296;2023-07-28T10:46:14;15.20;;;8.20;;
68234;SDS011;55052;52.056;5.296;2023-07-28T10:48:43;17.70;;;8.73;;
68234;SDS011;55052;52.056;5.296;2023-07-28T10:51:11;12.68;;;7.78;;
68234;SDS011;55052;52.056;5.296;2023-07-28T10:53:45;17.35;;;7.88;;
68234;SDS011;55052;52.056;5.296;2023-07-28T10:56:15;12.63;;;7.88;;
68234;SDS011;55052;52.056;5.296;2023-07-28T10:58:42;13.52;;;7.30;;
68234;SDS011;55052;52.056;5.296;2023-07-28T11:01:09;13.05;;;6.57;;
68234;SDS011;55052;52.056;5.296;2023-07-28T11:03:37;12.68;;;7.25;;
68234;SDS011;55052;52.056;5.296;2023-07-28T11:06:06;15.18;;;7.70;;
68234;SDS011;55052;52.056;5.296;2023-07-28T11:08:32;18.33;;;9.60;;
68234;SDS011;55052;52.056;5.296;2023-07-28T11:11:02;16.17;;;9.43;;
68234;SDS011;55052;52.056;5.296;2023-07-28T11:13:30;18.88;;;9.82;;
68234;SDS011;55052;52.056;5.296;2023-07-28T11:16:07;18.25;;;9.20;;
68234;SDS011;55052;52.056;5.296;2023-07-28T11:18:34;17.77;;;9.73;;
68234;SDS011;55052;52.056;5.296;2023-07-28T11:21:01;19.30;;;9.93;;
68234;SDS011;55052;52.056;5.296;2023-07-28T11:23:29;17.50;;;10.40;;
68234;SDS011;55052;52.056;5.296;2023-07-28T11:25:56;16.20;;;9.88;;
68234;SDS011;55052;52.056;5.296;2023-07-28T11:28:22;16.45;;;9.23;;
68234;SDS011;55052;52.056;5.296;2023-07-28T11:30:49;11.98;;;7.93;;
68234;SDS011;55052;52.056;5.296;2023-07-28T11:33:16;17.50;;;8.30;;
68234;SDS011;55052;52.056;5.296;2023-07-28T11:35:44;15.50;;;7.95;;
68234;SDS011;55052;52.056;5.296;2023-07-28T11:38:11;14.52;;;8.60;;
68234;SDS011;55052;52.056;5.296;2023-07-28T11:40:39;11.45;;;6.43;;
68234;SDS011;55052;52.056;5.296;2023-07-28T11:43:07;16.30;;;7.40;;
68234;SDS011;55052;52.056;5.296;2023-07-28T11:45:34;13.73;;;7.47;;
68234;SDS011;55052;52.056;5.296;2023-07-28T11:48:04;14.27;;;7.38;;
68234;SDS011;55052;52.056;5.296;2023-07-28T11:50:39;15.38;;;6.55;;
68234;SDS011;55052;52.056;5.296;2023-07-28T11:53:11;15.10;;;7.60;;
68234;SDS011;55052;52.056;5.296;2023-07-28T11:55:38;13.65;;;6.70;;
68234;SDS011;55052;52.056;5.296;2023-07-28T11:58:05;12.90;;;7.07;;
68234;SDS011;55052;52.056;5.296;2023-07-28T12:00:36;12.85;;;7.40;;
68234;SDS011;55052;52.056;5.296;2023-07-28T12:03:05;13.68;;;7.50;;
68234;SDS011;55052;52.056;5.296;2023-07-28T12:05:33;12.43;;;6.82;;
68234;SDS011;55052;52.056;5.296;2023-07-28T12:08:00;12.30;;;6.60;;
68234;SDS011;55052;52.056;5.296;2023-07-28T12:10:29;10.13;;;6.87;;
68234;SDS011;55052;52.056;5.296;2023-07-28T12:13:04;10.65;;;5.90;;
68234;SDS011;55052;52.056;5.296;2023-07-28T12:15:39;9.50;;;6.13;;
68234;SDS011;55052;52.056;5.296;2023-07-28T12:18:11;8.57;;;5.00;;
68234;SDS011;55052;52.056;5.296;2023-07-28T12:20:45;9.23;;;5.05;;
68234;SDS011;55052;52.056;5.296;2023-07-28T12:23:14;12.00;;;5.38;;
68234;SDS011;55052;52.056;5.296;2023-07-28T12:25:49;9.18;;;5.10;;
68234;SDS011;55052;52.056;5.296;2023-07-28T12:28:16;8.30;;;4.35;;
68234;SDS011;55052;52.056;5.296;2023-07-28T12:30:45;7.85;;;3.70;;
68234;SDS011;55052;52.056;5.296;2023-07-28T12:33:15;9.38;;;4.30;;
68234;SDS011;55052;52.056;5.296;2023-07-28T12:35:45;8.38;;;4.85;;
68234;SDS011;55052;52.056;5.296;2023-07-28T12:38:15;8.35;;;5.13;;
68234;SDS011;55052;52.056;5.296;2023-07-28T12:40:44;9.02;;;5.43;;
68234;SDS011;55052;52.056;5.296;2023-07-28T12:43:14;14.90;;;5.88;;
68234;SDS011;55052;52.056;5.296;2023-07-28T12:45:44;12.38;;;5.70;;
68234;SDS011;55052;52.056;5.296;2023-07-28T12:48:13;11.23;;;5.82;;
68234;SDS011;55052;52.056;5.296;2023-07-28T12:50:43;11.27;;;5.75;;
68234;SDS011;55052;52.056;5.296;2023-07-28T12:53:10;8.07;;;5.68;;
68234;SDS011;55052;52.056;5.296;2023-07-28T12:55:44;10.60;;;6.50;;
68234;SDS011;55052;52.056;5.296;2023-07-28T12:58:13;9.18;;;6.57;;
68234;SDS011;55052;52.056;5.296;2023-07-28T13:00:44;9.98;;;6.50;;
68234;SDS011;55052;52.056;5.296;2023-07-28T13:03:13;9.27;;;5.93;;
68234;SDS011;55052;52.056;5.296;2023-07-28T13:05:40;10.52;;;6.70;;
68234;SDS011;55052;52.056;5.296;2023-07-28T13:08:10;10.18;;;6.47;;
68234;SDS011;55052;52.056;5.296;2023-07-28T13:10:37;8.73;;;6.22;;
68234;SDS011;55052;52.056;5.296;2023-07-28T13:13:06;11.00;;;6.53;;
68234;SDS011;55052;52.056;5.296;2023-07-28T13:15:39;10.75;;;6.45;;
68234;SDS011;55052;52.056;5.296;2023-07-28T13:18:06;8.98;;;6.47;;
68234;SDS011;55052;52.056;5.296;2023-07-28T13:20:33;11.43;;;6.50;;
68234;SDS011;55052;52.056;5.296;2023-07-28T13:22:59;9.57;;;6.47;;
68234;SDS011;55052;52.056;5.296;2023-07-28T13:25:26;11.38;;;7.32;;
68234;SDS011;55052;52.056;5.296;2023-07-28T13:27:53;11.32;;;7.88;;
68234;SDS011;55052;52.056;5.296;2023-07-28T13:30:20;12.70;;;7.40;;
68234;SDS011;55052;52.056;5.296;2023-07-28T13:32:47;12.75;;;6.63;;
68234;SDS011;55052;52.056;5.296;2023-07-28T13:35:14;10.23;;;6.57;;
68234;SDS011;55052;52.056;5.296;2023-07-28T13:37:41;10.82;;;6.05;;
68234;SDS011;55052;52.056;5.296;2023-07-28T13:40:08;10.50;;;6.18;;
68234;SDS011;55052;52.056;5.296;2023-07-28T13:45:05;9.45;;;5.82;;
68234;SDS011;55052;52.056;5.296;2023-07-28T13:47:32;11.52;;;6.38;;
68234;SDS011;55052;52.056;5.296;2023-07-28T13:49:59;10.02;;;5.65;;
68234;SDS011;55052;52.056;5.296;2023-07-28T13:52:26;9.50;;;5.70;;
68234;SDS011;55052;52.056;5.296;2023-07-28T13:54:53;10.70;;;5.95;;
68234;SDS011;55052;52.056;5.296;2023-07-28T13:57:23;9.43;;;5.40;;
68234;SDS011;55052;52.056;5.296;2023-07-28T13:59:50;11.23;;;5.63;;
68234;SDS011;55052;52.056;5.296;2023-07-28T14:02:17;8.63;;;4.93;;
68234;SDS011;55052;52.056;5.296;2023-07-28T14:04:47;10.02;;;5.60;;
68234;SDS011;55052;52.056;5.296;2023-07-28T14:07:14;9.85;;;5.32;;
68234;SDS011;55052;52.056;5.296;2023-07-28T14:09:40;8.27;;;5.35;;
68234;SDS011;55052;52.056;5.296;2023-07-28T14:12:07;9.57;;;5.78;;
68234;SDS011;55052;52.056;5.296;2023-07-28T14:14:34;10.98;;;5.95;;
68234;SDS011;55052;52.056;5.296;2023-07-28T14:17:01;10.40;;;4.70;;
68234;SDS011;55052;52.056;5.296;2023-07-28T14:19:28;9.25;;;4.95;;
68234;SDS011;55052;52.056;5.296;2023-07-28T14:21:55;11.18;;;5.63;;
68234;SDS011;55052;52.056;5.296;2023-07-28T14:24:22;11.48;;;5.15;;
68234;SDS011;55052;52.056;5.296;2023-07-28T14:26:49;11.13;;;5.50;;
68234;SDS011;55052;52.056;5.296;2023-07-28T14:29:15;8.00;;;4.97;;
68234;SDS011;55052;52.056;5.296;2023-07-28T14:31:42;11.93;;;5.78;;
68234;SDS011;55052;52.056;5.296;2023-07-28T14:34:10;10.95;;;6.05;;
68234;SDS011;55052;52.056;5.296;2023-07-28T14:36:37;11.65;;;6.80;;
68234;SDS011;55052;52.056;5.296;2023-07-28T14:39:04;11.93;;;7.32;;
68234;SDS011;55052;52.056;5.296;2023-07-28T14:41:31;12.73;;;7.57;;
68234;SDS011;55052;52.056;5.296;2023-07-28T14:43:59;12.63;;;8.80;;